Time;durP1;ratioP1;P1;durP2;ratioP2;P2;SDS_P1;SDS_P2;PMS_P1;PMS_P2;Temp;Humidity;BMP_temperature;BMP_pressure;BME280_temperature;BME280_humidity;BME280_pressure;Samples;Min_cycle;Max_cycle;Signal;HPM_P1;HPM_P2
2021/03/19 00:00:02;;;;;;;5.95;3.67;;;2.80;99.90;;;;;;1869966;75;21075;-76
2021/03/19 00:02:28;;;;;;;4.65;3.87;;;2.80;99.90;;;;;;1865839;76;21061;-74
2021/03/19 00:04:54;;;;;;;9.23;4.62;;;2.80;99.90;;;;;;1859103;75;21143;-76
2021/03/19 00:07:24;;;;;;;8.65;4.40;;;2.90;99.90;;;;;;1853131;76;21065;-74
2021/03/19 00:09:48;;;;;;;5.85;4.35;;;2.90;99.90;;;;;;1858827;75;21177;-75
2021/03/19 00:12:14;;;;;;;7.33;4.47;;;2.90;99.90;;;;;;1864969;76;21100;-76
2021/03/19 00:14:40;;;;;;;10.43;4.15;;;2.90;99.90;;;;;;1858503;75;21087;-76
2021/03/19 00:17:07;;;;;;;7.22;4.05;;;2.80;99.90;;;;;;1870216;75;21224;-76
2021/03/19 00:19:33;;;;;;;14.07;4.12;;;2.80;99.90;;;;;;1872356;76;21100;-76
2021/03/19 00:21:59;;;;;;;11.15;3.95;;;2.80;99.90;;;;;;1857993;75;21465;-76
2021/03/19 00:24:25;;;;;;;8.95;4.17;;;2.80;99.90;;;;;;1879754;76;21460;-76
2021/03/19 00:26:51;;;;;;;9.88;4.30;;;2.80;99.90;;;;;;1879715;76;21512;-76
2021/03/19 00:29:17;;;;;;;5.15;3.37;;;2.80;99.90;;;;;;1879692;75;21095;-76
2021/03/19 00:31:43;;;;;;;5.05;3.85;;;2.70;99.90;;;;;;1873668;76;21099;-76
2021/03/19 00:34:10;;;;;;;5.45;3.72;;;2.70;99.90;;;;;;1873773;76;21092;-76
2021/03/19 00:36:36;;;;;;;8.53;3.83;;;2.70;99.90;;;;;;1851624;75;21166;-77
2021/03/19 00:39:02;;;;;;;6.20;3.95;;;2.80;99.90;;;;;;1902402;75;21087;-77
2021/03/19 00:41:28;;;;;;;5.75;3.72;;;2.70;99.90;;;;;;1866330;76;21094;-76
2021/03/19 00:43:54;;;;;;;7.67;4.17;;;2.80;99.90;;;;;;1910473;75;21084;-74
2021/03/19 00:46:20;;;;;;;6.28;4.12;;;2.80;99.90;;;;;;1865859;76;21148;-74
2021/03/19 00:48:46;;;;;;;14.50;3.92;;;2.70;99.90;;;;;;1905161;75;21130;-76
2021/03/19 00:51:13;;;;;;;5.90;3.83;;;2.70;99.90;;;;;;1896708;75;21061;-76
2021/03/19 00:53:39;;;;;;;10.03;4.62;;;2.60;99.90;;;;;;1863982;76;21082;-76
2021/03/19 00:56:05;;;;;;;7.42;4.05;;;2.60;99.90;;;;;;1878042;76;21158;-76
2021/03/19 00:58:31;;;;;;;10.38;3.87;;;2.60;99.90;;;;;;1870927;76;21516;-76
2021/03/19 01:00:57;;;;;;;4.15;3.70;;;2.60;99.90;;;;;;1870480;75;21604;-76
2021/03/19 01:03:23;;;;;;;6.25;3.77;;;2.50;99.90;;;;;;1880825;76;21570;-76
2021/03/19 01:05:49;;;;;;;4.05;2.98;;;2.60;99.90;;;;;;1871639;76;21088;-76
2021/03/19 01:08:15;;;;;;;4.97;3.70;;;2.70;99.90;;;;;;1881848;76;21044;-74
2021/03/19 01:10:41;;;;;;;6.35;3.33;;;2.80;99.90;;;;;;1881721;76;21177;-76
2021/03/19 01:13:08;;;;;;;7.65;3.30;;;2.70;99.90;;;;;;1863571;76;21085;-76
2021/03/19 01:15:34;;;;;;;6.67;3.65;;;2.80;99.90;;;;;;1871724;76;21103;-74
2021/03/19 01:18:00;;;;;;;5.60;3.92;;;2.80;99.90;;;;;;1892414;75;21149;-74
2021/03/19 01:20:27;;;;;;;4.95;3.62;;;2.70;99.90;;;;;;1908747;75;21079;-76
2021/03/19 01:22:53;;;;;;;6.33;4.17;;;2.70;99.90;;;;;;1908412;75;21053;-76
2021/03/19 01:25:19;;;;;;;5.28;3.75;;;2.70;99.90;;;;;;1909944;75;21086;-75
2021/03/19 01:27:46;;;;;;;5.62;3.85;;;2.70;99.90;;;;;;1901141;75;21083;-75
2021/03/19 01:30:12;;;;;;;7.85;3.98;;;2.70;99.90;;;;;;1892267;74;21103;-75
2021/03/19 01:32:38;;;;;;;4.85;3.55;;;2.60;99.90;;;;;;1886941;75;21557;-75
2021/03/19 01:35:04;;;;;;;4.83;3.40;;;2.60;99.90;;;;;;1905296;75;21488;-74
2021/03/19 01:37:30;;;;;;;4.53;3.67;;;2.60;99.90;;;;;;1899561;75;21867;-74
2021/03/19 01:39:56;;;;;;;11.43;3.72;;;2.60;99.90;;;;;;1905421;75;21162;-74
2021/03/19 01:42:22;;;;;;;4.97;3.98;;;2.50;99.90;;;;;;1911761;74;21095;-74
2021/03/19 01:44:48;;;;;;;6.45;4.10;;;2.50;99.90;;;;;;1896337;75;21083;-74
2021/03/19 01:47:14;;;;;;;8.95;4.47;;;2.50;99.90;;;;;;1909084;75;21202;-74
2021/03/19 01:49:41;;;;;;;14.18;4.58;;;2.50;99.90;;;;;;1904019;75;21123;-74
2021/03/19 01:52:07;;;;;;;10.03;4.50;;;2.50;99.90;;;;;;1897469;75;21075;-74
2021/03/19 01:54:33;;;;;;;14.68;4.83;;;2.40;99.90;;;;;;1899145;75;21072;-74
2021/03/19 01:56:59;;;;;;;7.15;4.95;;;2.40;99.90;;;;;;1904914;75;21142;-74
2021/03/19 01:59:25;;;;;;;7.25;4.95;;;2.30;99.90;;;;;;1903934;75;21075;-75
2021/03/19 02:01:52;;;;;;;7.25;4.65;;;2.40;99.90;;;;;;1900306;75;21141;-75
2021/03/19 02:04:18;;;;;;;10.48;5.20;;;2.40;99.90;;;;;;1905053;75;21133;-74
2021/03/19 02:06:44;;;;;;;8.75;4.92;;;2.30;99.90;;;;;;1899766;75;21205;-74
2021/03/19 02:09:10;;;;;;;6.90;4.72;;;2.30;99.90;;;;;;1909427;75;21316;-74
2021/03/19 02:11:36;;;;;;;8.08;5.10;;;2.30;99.90;;;;;;1906862;75;21068;-75
2021/03/19 02:14:02;;;;;;;7.37;5.33;;;2.20;99.90;;;;;;1901290;75;21093;-74
2021/03/19 02:16:28;;;;;;;7.85;5.17;;;2.20;99.90;;;;;;1899019;75;21243;-75
2021/03/19 02:18:55;;;;;;;6.12;4.60;;;2.10;99.90;;;;;;1905169;75;21480;-75
2021/03/19 02:21:21;;;;;;;5.92;4.37;;;2.00;99.90;;;;;;1896215;75;21420;-74
2021/03/19 02:23:47;;;;;;;6.58;4.58;;;2.00;99.90;;;;;;1909372;75;21533;-74
2021/03/19 02:26:13;;;;;;;7.37;5.33;;;1.90;99.90;;;;;;1907978;75;21091;-74
2021/03/19 02:28:39;;;;;;;9.88;5.87;;;1.90;99.90;;;;;;1898669;75;21133;-75
2021/03/19 02:31:05;;;;;;;12.00;5.50;;;1.90;99.90;;;;;;1896242;75;21091;-77
2021/03/19 02:33:31;;;;;;;9.68;5.33;;;1.90;99.90;;;;;;1901864;75;21077;-76
2021/03/19 02:35:57;;;;;;;6.30;5.10;;;2.00;99.90;;;;;;1910318;74;21089;-75
2021/03/19 02:38:23;;;;;;;10.28;5.42;;;1.90;99.90;;;;;;1906140;75;21045;-74
2021/03/19 02:40:50;;;;;;;8.50;5.45;;;1.90;99.90;;;;;;1902951;75;21149;-75
2021/03/19 02:43:16;;;;;;;11.00;5.65;;;2.00;99.90;;;;;;1901829;75;21141;-74
2021/03/19 02:45:42;;;;;;;11.45;6.45;;;2.00;99.90;;;;;;1896074;75;21145;-74
2021/03/19 02:48:08;;;;;;;8.65;6.12;;;1.90;99.90;;;;;;1909264;75;21091;-74
2021/03/19 02:50:34;;;;;;;9.43;5.67;;;1.90;99.90;;;;;;1908356;75;21096;-74
2021/03/19 02:53:00;;;;;;;9.95;5.78;;;2.00;99.90;;;;;;1909341;75;21449;-74
2021/03/19 02:55:26;;;;;;;9.80;6.28;;;1.90;99.90;;;;;;1900861;75;21485;-74
2021/03/19 02:57:52;;;;;;;9.63;6.28;;;1.90;99.90;;;;;;1899602;75;21484;-76
2021/03/19 03:00:19;;;;;;;11.10;6.50;;;1.90;99.90;;;;;;1900606;75;21083;-76
2021/03/19 03:02:45;;;;;;;9.10;6.08;;;2.00;99.90;;;;;;1898571;75;21161;-76
2021/03/19 03:05:11;;;;;;;9.03;6.30;;;2.00;99.90;;;;;;1900393;75;21141;-76
2021/03/19 03:07:37;;;;;;;10.63;6.58;;;2.00;99.90;;;;;;1901645;75;21091;-74
2021/03/19 03:10:03;;;;;;;10.58;6.35;;;1.90;99.90;;;;;;1900646;75;21052;-75
2021/03/19 03:12:29;;;;;;;8.13;5.92;;;1.80;99.90;;;;;;1896298;75;21079;-74
2021/03/19 03:14:55;;;;;;;12.05;6.90;;;1.70;99.90;;;;;;1896421;75;21087;-76
2021/03/19 03:17:21;;;;;;;9.55;5.87;;;1.80;99.90;;;;;;1906193;74;21133;-76
2021/03/19 03:19:48;;;;;;;11.83;7.12;;;1.80;99.90;;;;;;1899671;75;21201;-75
2021/03/19 03:22:14;;;;;;;16.30;6.60;;;1.70;99.90;;;;;;1906512;75;21484;-75
2021/03/19 03:24:40;;;;;;;12.40;7.12;;;1.70;99.90;;;;;;1896117;75;21087;-76
2021/03/19 03:27:08;;;;;;;8.00;6.50;;;1.60;99.90;;;;;;1897996;75;21040;-76
2021/03/19 03:29:34;;;;;;;11.20;6.90;;;1.60;99.90;;;;;;1899431;75;21465;-74
2021/03/19 03:32:00;;;;;;;8.65;6.22;;;1.70;99.90;;;;;;1910494;75;21479;-75
2021/03/19 03:34:26;;;;;;;10.50;6.40;;;1.70;99.90;;;;;;1897362;75;21581;-76
2021/03/19 03:36:52;;;;;;;8.60;6.03;;;1.70;99.90;;;;;;1898152;75;21079;-75
2021/03/19 03:39:19;;;;;;;9.95;6.22;;;1.60;99.90;;;;;;1897988;75;21091;-76
2021/03/19 03:41:46;;;;;;;10.65;6.40;;;1.70;99.90;;;;;;1897088;75;21083;-74
2021/03/19 03:44:13;;;;;;;12.15;6.37;;;1.60;99.90;;;;;;1906040;75;21085;-76
2021/03/19 03:46:39;;;;;;;17.40;6.60;;;1.70;99.90;;;;;;1905178;75;21208;-74
2021/03/19 03:49:06;;;;;;;11.03;7.42;;;1.70;99.90;;;;;;1897174;75;21095;-76
2021/03/19 03:51:32;;;;;;;9.43;6.62;;;1.70;99.90;;;;;;1896203;75;21080;-75
2021/03/19 03:53:58;;;;;;;12.35;6.55;;;1.70;99.90;;;;;;1903154;75;21458;-76
2021/03/19 03:56:24;;;;;;;10.20;6.45;;;1.60;99.90;;;;;;1900120;75;21052;-76
2021/03/19 03:58:50;;;;;;;9.60;6.87;;;1.70;99.90;;;;;;1903346;75;21071;-75
2021/03/19 04:01:17;;;;;;;20.77;7.42;;;1.70;99.90;;;;;;1906763;75;21071;-76
2021/03/19 04:03:44;;;;;;;7.80;6.12;;;1.80;99.90;;;;;;1905953;75;21162;-76
2021/03/19 04:06:10;;;;;;;9.38;6.60;;;1.80;99.90;;;;;;1900877;75;21087;-76
2021/03/19 04:08:37;;;;;;;10.30;6.40;;;1.80;99.90;;;;;;1900366;75;21099;-76
2021/03/19 04:11:04;;;;;;;15.65;6.78;;;1.80;99.90;;;;;;1911484;75;21092;-76
2021/03/19 04:13:30;;;;;;;9.45;6.67;;;1.90;99.90;;;;;;1902839;75;21060;-74
2021/03/19 04:15:56;;;;;;;14.87;6.65;;;1.80;99.90;;;;;;1898206;75;21146;-76
2021/03/19 04:18:22;;;;;;;10.68;7.37;;;1.80;99.90;;;;;;1898076;75;21083;-73
2021/03/19 04:20:48;;;;;;;10.20;6.65;;;1.70;99.90;;;;;;1896167;75;21126;-76
2021/03/19 04:23:14;;;;;;;9.10;5.85;;;1.70;99.90;;;;;;1897063;75;21081;-75
2021/03/19 04:25:40;;;;;;;8.83;6.45;;;1.70;99.90;;;;;;1901096;75;21052;-75
2021/03/19 04:28:07;;;;;;;10.88;6.87;;;1.70;99.90;;;;;;1899811;75;21049;-75
2021/03/19 04:30:33;;;;;;;9.53;5.60;;;1.60;99.90;;;;;;1896339;75;21087;-75
2021/03/19 04:32:59;;;;;;;9.95;6.37;;;1.70;99.90;;;;;;1896151;75;21087;-76
2021/03/19 04:35:25;;;;;;;16.77;7.53;;;1.80;99.90;;;;;;1896968;75;21080;-76
2021/03/19 04:37:52;;;;;;;9.85;6.35;;;1.80;99.90;;;;;;1898895;75;21141;-75
2021/03/19 04:40:18;;;;;;;10.25;6.58;;;1.80;99.90;;;;;;1900952;75;21492;-75
2021/03/19 04:42:44;;;;;;;9.23;6.22;;;2.00;99.90;;;;;;1902221;75;21512;-74
2021/03/19 04:45:12;;;;;;;10.35;6.72;;;2.00;99.90;;;;;;1905321;75;21504;-75
2021/03/19 04:47:38;;;;;;;7.53;5.37;;;2.00;99.90;;;;;;1906191;75;21244;-74
2021/03/19 04:50:04;;;;;;;8.63;5.70;;;2.10;99.90;;;;;;1908995;75;21112;-75
2021/03/19 04:52:30;;;;;;;10.75;6.20;;;2.20;99.90;;;;;;1901832;75;21500;-76
2021/03/19 04:55:00;;;;;;;11.48;5.95;;;2.30;99.90;;;;;;1902173;75;21471;-75
2021/03/19 04:57:24;;;;;;;16.82;6.08;;;2.30;99.90;;;;;;1903741;75;21150;-74
2021/03/19 04:59:50;;;;;;;10.48;6.30;;;2.20;99.90;;;;;;1909927;75;21162;-76
2021/03/19 05:02:16;;;;;;;9.75;7.05;;;2.10;99.90;;;;;;1908151;75;21049;-75
2021/03/19 05:04:42;;;;;;;10.20;6.62;;;2.10;99.90;;;;;;1908343;75;21164;-76
2021/03/19 05:07:09;;;;;;;21.57;7.37;;;2.00;99.90;;;;;;1909877;75;21577;-76
2021/03/19 05:09:35;;;;;;;10.75;6.62;;;2.00;99.90;;;;;;1903996;75;21169;-75
2021/03/19 05:12:02;;;;;;;10.10;6.42;;;2.00;99.90;;;;;;1906236;75;21134;-75
2021/03/19 05:14:28;;;;;;;8.18;6.08;;;2.00;99.90;;;;;;1908571;75;21127;-74
2021/03/19 05:16:54;;;;;;;8.45;6.22;;;1.90;99.90;;;;;;1897068;75;21084;-75
2021/03/19 05:19:20;;;;;;;8.33;6.37;;;1.70;99.90;;;;;;1901340;75;21060;-74
2021/03/19 05:21:46;;;;;;;9.65;5.80;;;1.80;99.90;;;;;;1902966;75;21038;-74
2021/03/19 05:24:12;;;;;;;9.70;6.05;;;1.80;99.90;;;;;;1896664;74;21157;-74
2021/03/19 05:26:39;;;;;;;11.18;6.37;;;1.90;99.90;;;;;;1899408;75;21554;-74
2021/03/19 05:29:06;;;;;;;9.15;5.87;;;2.00;99.90;;;;;;1859464;76;21162;-75
2021/03/19 05:31:33;;;;;;;8.68;5.95;;;2.10;99.90;;;;;;1901757;75;21078;-75
2021/03/19 05:33:59;;;;;;;12.13;6.60;;;2.20;99.90;;;;;;1906087;74;21087;-74
2021/03/19 05:36:25;;;;;;;11.75;6.30;;;2.10;99.90;;;;;;1861503;76;21090;-76
2021/03/19 05:38:51;;;;;;;9.53;5.95;;;2.00;99.90;;;;;;1898941;75;21060;-74
2021/03/19 05:41:18;;;;;;;9.10;5.53;;;2.00;99.90;;;;;;1896331;75;21125;-76
2021/03/19 05:43:44;;;;;;;13.08;5.78;;;2.20;99.90;;;;;;1903678;75;21197;-74
2021/03/19 05:46:10;;;;;;;9.95;6.33;;;2.20;99.90;;;;;;1862227;76;21077;-73
2021/03/19 05:48:36;;;;;;;9.40;6.60;;;2.10;99.90;;;;;;1876058;75;21517;-76
2021/03/19 05:51:02;;;;;;;11.47;5.40;;;2.10;99.90;;;;;;1861446;75;21574;-74
2021/03/19 05:53:28;;;;;;;7.17;5.35;;;2.00;99.90;;;;;;1870189;76;21228;-76
2021/03/19 05:55:54;;;;;;;10.48;6.00;;;2.10;99.90;;;;;;1866719;75;21142;-76
2021/03/19 05:58:20;;;;;;;12.60;6.55;;;2.20;99.90;;;;;;1873806;75;21060;-76
2021/03/19 06:00:47;;;;;;;8.25;5.78;;;2.20;99.90;;;;;;1871056;75;21164;-76
2021/03/19 06:03:13;;;;;;;9.13;6.03;;;2.20;99.90;;;;;;1859041;75;21098;-76
2021/03/19 06:05:39;;;;;;;14.20;6.55;;;2.40;99.90;;;;;;1864492;76;21153;-74
2021/03/19 06:08:07;;;;;;;9.83;6.12;;;2.50;99.90;;;;;;1866319;76;21101;-76
2021/03/19 06:10:33;;;;;;;8.45;6.28;;;2.50;99.90;;;;;;1865081;75;21124;-76
2021/03/19 06:12:59;;;;;;;10.50;6.40;;;2.40;99.90;;;;;;1873824;76;21107;-76
2021/03/19 06:15:25;;;;;;;8.08;6.20;;;2.40;99.90;;;;;;1867800;75;21105;-74
2021/03/19 06:17:52;;;;;;;7.85;5.75;;;2.50;99.90;;;;;;1874400;75;21057;-75
2021/03/19 06:20:18;;;;;;;11.12;6.65;;;2.50;99.90;;;;;;1879763;75;21531;-75
2021/03/19 06:22:46;;;;;;;10.18;6.55;;;2.50;99.90;;;;;;1857042;75;21569;-75
2021/03/19 06:25:12;;;;;;;7.50;5.67;;;2.70;99.90;;;;;;1873749;76;21300;-75
2021/03/19 06:27:38;;;;;;;10.82;5.83;;;2.70;99.90;;;;;;1874941;75;21092;-76
2021/03/19 06:30:04;;;;;;;11.73;6.45;;;2.80;99.90;;;;;;1856370;75;21153;-73
2021/03/19 06:32:30;;;;;;;11.93;5.92;;;2.70;99.90;;;;;;1873620;75;21065;-76
2021/03/19 06:34:56;;;;;;;7.70;5.67;;;2.80;99.90;;;;;;1877575;75;21056;-76
2021/03/19 06:37:22;;;;;;;12.13;6.90;;;2.80;99.90;;;;;;1858806;75;21157;-74
2021/03/19 06:39:48;;;;;;;9.90;6.35;;;2.80;99.90;;;;;;1867872;75;21198;-73
2021/03/19 06:42:15;;;;;;;12.03;6.78;;;2.90;99.90;;;;;;1879791;75;21091;-73
2021/03/19 06:44:41;;;;;;;9.05;5.70;;;3.00;99.90;;;;;;1863855;75;21092;-74
2021/03/19 06:47:07;;;;;;;10.20;5.78;;;3.20;99.90;;;;;;1866560;76;21099;-74
2021/03/19 06:49:33;;;;;;;12.30;6.58;;;3.20;99.90;;;;;;1879974;76;21065;-75
2021/03/19 06:51:59;;;;;;;10.25;6.62;;;3.20;99.90;;;;;;1877680;75;21088;-74
2021/03/19 06:54:25;;;;;;;9.88;6.40;;;2.90;99.90;;;;;;1879827;76;21092;-74
2021/03/19 06:56:51;;;;;;;12.95;6.22;;;3.00;99.90;;;;;;1861869;76;21182;-75
2021/03/19 06:59:17;;;;;;;10.63;5.97;;;3.20;99.90;;;;;;1849420;76;21100;-74
2021/03/19 07:01:44;;;;;;;16.57;5.62;;;3.20;99.90;;;;;;1870080;75;21089;-75
2021/03/19 07:04:10;;;;;;;9.10;6.00;;;3.30;99.90;;;;;;1858298;75;21107;-74
2021/03/19 07:06:36;;;;;;;7.15;5.60;;;3.20;99.90;;;;;;1850003;75;21104;-75
2021/03/19 07:09:02;;;;;;;7.83;5.65;;;3.20;99.90;;;;;;1879817;76;21452;-76
2021/03/19 07:11:29;;;;;;;5.17;4.67;;;3.30;99.90;;;;;;1885697;76;21181;-76
2021/03/19 07:13:55;;;;;;;8.53;5.97;;;3.30;99.90;;;;;;1871322;75;21097;-74
2021/03/19 07:16:21;;;;;;;10.13;6.08;;;3.40;99.90;;;;;;1851071;75;21173;-74
2021/03/19 07:18:47;;;;;;;9.88;6.37;;;3.30;99.90;;;;;;1862854;76;21095;-74
2021/03/19 07:21:13;;;;;;;12.30;7.10;;;3.10;99.90;;;;;;1872658;75;21084;-74
2021/03/19 07:23:39;;;;;;;8.95;6.58;;;2.90;99.90;;;;;;1864539;75;21099;-74
2021/03/19 07:26:05;;;;;;;10.20;6.62;;;2.90;99.90;;;;;;1856193;75;21148;-74
2021/03/19 07:28:31;;;;;;;16.90;6.58;;;2.60;99.90;;;;;;1856683;76;21151;-74
2021/03/19 07:30:58;;;;;;;11.03;5.95;;;2.80;99.90;;;;;;1871802;75;21070;-74
2021/03/19 07:33:24;;;;;;;9.08;6.45;;;3.00;99.90;;;;;;1850606;75;21495;-69
2021/03/19 07:35:50;;;;;;;9.58;5.87;;;3.20;99.90;;;;;;1861355;75;21591;-72
2021/03/19 07:38:16;;;;;;;12.00;6.67;;;3.30;99.90;;;;;;1857623;76;21507;-73
2021/03/19 07:40:42;;;;;;;6.83;5.92;;;3.40;99.90;;;;;;1838304;75;21159;-74
2021/03/19 07:43:08;;;;;;;9.53;6.42;;;3.50;99.90;;;;;;1843591;75;21202;-73
2021/03/19 07:45:34;;;;;;;8.98;6.03;;;3.80;99.90;;;;;;1836650;78;21085;-75
2021/03/19 07:48:00;;;;;;;10.10;5.87;;;3.90;99.90;;;;;;1858155;75;21104;-74
2021/03/19 07:50:27;;;;;;;9.75;6.25;;;4.00;99.90;;;;;;1860504;75;21062;-74
2021/03/19 07:52:53;;;;;;;10.58;5.92;;;4.00;99.90;;;;;;1861368;75;21069;-73
2021/03/19 07:55:19;;;;;;;8.10;6.00;;;3.80;99.90;;;;;;1866897;75;21101;-74
2021/03/19 07:57:45;;;;;;;12.25;7.25;;;3.70;99.90;;;;;;1853196;76;21167;-73
2021/03/19 08:00:11;;;;;;;11.93;7.12;;;3.70;99.90;;;;;;1849252;75;21093;-73
2021/03/19 08:02:37;;;;;;;9.85;6.55;;;3.70;99.90;;;;;;1855632;75;21091;-73
2021/03/19 08:05:04;;;;;;;11.73;6.87;;;3.70;99.90;;;;;;1878997;75;21157;-75
2021/03/19 08:07:30;;;;;;;7.60;6.10;;;3.70;99.90;;;;;;1856143;75;21085;-73
2021/03/19 08:09:56;;;;;;;10.08;6.65;;;3.70;99.90;;;;;;1871430;76;21060;-74
2021/03/19 08:12:22;;;;;;;13.48;6.45;;;3.60;99.90;;;;;;1875537;76;21068;-73
2021/03/19 08:14:48;;;;;;;14.40;7.28;;;3.50;99.90;;;;;;1859747;75;21125;-73
2021/03/19 08:17:15;;;;;;;15.65;7.70;;;3.50;99.90;;;;;;1873606;75;21155;-73
2021/03/19 08:19:41;;;;;;;13.38;7.92;;;3.60;99.90;;;;;;1837666;75;21151;-71
2021/03/19 08:22:07;;;;;;;13.22;7.22;;;3.70;99.90;;;;;;1868069;75;21165;-71
2021/03/19 08:24:33;;;;;;;13.10;7.15;;;3.90;99.90;;;;;;1856331;75;21086;-72
2021/03/19 08:27:00;;;;;;;15.10;7.50;;;3.60;99.90;;;;;;1904779;75;21092;-72
2021/03/19 08:29:28;;;;;;;13.90;7.53;;;3.70;99.90;;;;;;1884594;75;21092;-71
2021/03/19 08:31:55;;;;;;;10.50;7.08;;;3.50;99.90;;;;;;1907254;75;21198;-72
2021/03/19 08:34:21;;;;;;;13.65;6.85;;;3.60;99.90;;;;;;1865993;76;21145;-73
2021/03/19 08:36:47;;;;;;;13.22;7.35;;;3.50;99.90;;;;;;1907361;75;21091;-71
2021/03/19 08:39:14;;;;;;;7.80;5.62;;;3.80;99.90;;;;;;1865873;76;21148;-72
2021/03/19 08:41:40;;;;;;;8.55;4.55;;;3.80;99.90;;;;;;1895764;75;21065;-73
2021/03/19 08:44:06;;;;;;;7.78;5.92;;;3.80;99.90;;;;;;1907089;75;21080;-72
2021/03/19 08:46:32;;;;;;;8.58;5.80;;;3.80;99.90;;;;;;1906192;75;21153;-73
2021/03/19 08:48:58;;;;;;;8.18;5.78;;;3.70;99.90;;;;;;1863056;76;21138;-73
2021/03/19 08:51:24;;;;;;;9.38;6.28;;;3.70;99.90;;;;;;1900632;75;21154;-74
2021/03/19 08:53:50;;;;;;;9.08;4.87;;;3.80;99.90;;;;;;1905327;75;21083;-73
2021/03/19 08:56:16;;;;;;;11.28;5.03;;;3.90;99.90;;;;;;1865981;76;21103;-73
2021/03/19 08:58:43;;;;;;;6.50;4.75;;;4.00;99.90;;;;;;1904762;75;21056;-73
2021/03/19 09:01:09;;;;;;;8.15;4.55;;;4.00;99.90;;;;;;1863424;76;21197;-72
2021/03/19 09:03:35;;;;;;;4.92;4.20;;;4.00;99.90;;;;;;1912624;74;21222;-74
2021/03/19 09:06:01;;;;;;;7.53;4.40;;;4.10;99.90;;;;;;1868060;76;21486;-72
2021/03/19 09:08:27;;;;;;;9.45;4.37;;;4.10;99.90;;;;;;1905960;75;21491;-72
2021/03/19 09:10:53;;;;;;;4.85;4.25;;;4.00;99.90;;;;;;1869816;76;21560;-74
2021/03/19 09:13:19;;;;;;;5.65;4.30;;;4.00;99.90;;;;;;1899389;75;21092;-74
2021/03/19 09:15:45;;;;;;;6.70;4.58;;;3.90;99.90;;;;;;1905105;75;21081;-73
2021/03/19 09:18:12;;;;;;;5.37;4.55;;;3.80;99.90;;;;;;1866302;76;21097;-74
2021/03/19 09:20:38;;;;;;;7.00;4.85;;;3.70;99.90;;;;;;1912146;75;21049;-73
2021/03/19 09:23:05;;;;;;;7.85;4.97;;;3.80;99.90;;;;;;1859412;76;21172;-72
2021/03/19 09:25:31;;;;;;;10.20;4.55;;;3.90;99.90;;;;;;1893060;74;21075;-73
2021/03/19 09:27:57;;;;;;;6.00;5.40;;;3.90;99.90;;;;;;1895716;75;21095;-73
2021/03/19 09:30:23;;;;;;;6.55;5.35;;;4.20;99.90;;;;;;1896263;75;21075;-74
2021/03/19 09:32:49;;;;;;;7.20;5.08;;;4.10;99.90;;;;;;1900139;75;21237;-74
2021/03/19 09:35:15;;;;;;;7.75;5.15;;;4.20;99.90;;;;;;1905048;75;21535;-74
2021/03/19 09:37:41;;;;;;;7.72;5.60;;;4.20;99.90;;;;;;1865357;76;21571;-72
2021/03/19 09:40:07;;;;;;;8.30;5.65;;;4.10;99.90;;;;;;1898417;75;21491;-73
2021/03/19 09:42:35;;;;;;;8.03;5.15;;;4.00;99.90;;;;;;1904223;75;21088;-73
2021/03/19 09:45:02;;;;;;;12.78;6.53;;;4.20;99.90;;;;;;1864073;76;21608;-73
2021/03/19 09:47:28;;;;;;;9.83;6.05;;;4.00;99.90;;;;;;1873898;75;21205;-73
2021/03/19 09:49:54;;;;;;;10.32;7.05;;;4.20;99.90;;;;;;1879068;75;21040;-72
2021/03/19 09:52:21;;;;;;;8.68;6.37;;;4.20;99.90;;;;;;1878442;75;21088;-73
2021/03/19 09:54:47;;;;;;;9.55;5.95;;;4.40;99.90;;;;;;1878982;75;21095;-73
2021/03/19 09:57:13;;;;;;;12.53;6.30;;;4.30;99.90;;;;;;1855257;75;21175;-73
2021/03/19 09:59:39;;;;;;;8.20;5.60;;;4.10;99.90;;;;;;1859073;75;21139;-73
2021/03/19 10:02:05;;;;;;;10.75;6.53;;;4.10;99.90;;;;;;1871449;75;21066;-72
2021/03/19 10:04:31;;;;;;;11.53;6.58;;;4.20;99.90;;;;;;1854253;75;21165;-74
2021/03/19 10:06:57;;;;;;;8.90;6.25;;;4.20;99.90;;;;;;1863802;75;21516;-73
2021/03/19 10:09:23;;;;;;;10.85;6.33;;;4.20;99.90;;;;;;1866626;75;21099;-73
2021/03/19 10:11:50;;;;;;;9.25;6.75;;;4.30;99.90;;;;;;1864046;75;21288;-72
2021/03/19 10:14:16;;;;;;;7.50;5.75;;;4.30;99.90;;;;;;1879084;75;21096;-73
2021/03/19 10:16:42;;;;;;;9.50;6.72;;;4.40;99.90;;;;;;1880030;75;21091;-74
2021/03/19 10:19:08;;;;;;;11.63;5.70;;;4.10;99.90;;;;;;1873824;76;21062;-74
2021/03/19 10:21:34;;;;;;;9.30;6.58;;;4.30;99.90;;;;;;1879923;76;21091;-73
2021/03/19 10:24:02;;;;;;;7.55;5.95;;;4.30;99.90;;;;;;1867675;75;21101;-73
2021/03/19 10:26:28;;;;;;;11.73;5.72;;;4.50;99.90;;;;;;1879600;75;21185;-75
2021/03/19 10:28:55;;;;;;;6.83;4.92;;;4.90;99.90;;;;;;1879683;75;21091;-74
2021/03/19 10:31:21;;;;;;;7.90;4.72;;;5.60;99.90;;;;;;1898444;75;21541;-73
2021/03/19 10:33:47;;;;;;;10.90;5.62;;;6.20;99.90;;;;;;1895788;75;21076;-73
2021/03/19 10:36:13;;;;;;;6.17;4.40;;;6.50;99.90;;;;;;1898969;75;21083;-74
2021/03/19 10:38:39;;;;;;;5.58;4.45;;;7.10;99.90;;;;;;1857324;76;21106;-74
2021/03/19 10:41:07;;;;;;;4.15;3.22;;;7.00;99.90;;;;;;1896670;75;21121;-74
2021/03/19 10:43:33;;;;;;;7.92;3.85;;;6.30;99.90;;;;;;1904837;75;21092;-74
2021/03/19 10:46:00;;;;;;;4.35;3.02;;;6.70;99.90;;;;;;1860663;76;21094;-74
2021/03/19 10:48:26;;;;;;;3.55;2.77;;;5.90;99.90;;;;;;1873301;75;21089;-74
2021/03/19 10:50:52;;;;;;;6.87;2.98;;;6.20;99.90;;;;;;1874411;76;21099;-74
2021/03/19 10:53:18;;;;;;;3.35;3.05;;;6.60;99.90;;;;;;1861404;75;21142;-73
2021/03/19 10:55:44;;;;;;;4.58;3.08;;;6.70;99.90;;;;;;1868916;76;21072;-73
2021/03/19 10:58:10;;;;;;;4.22;2.87;;;6.70;99.90;;;;;;1867712;76;21101;-74
2021/03/19 11:00:40;;;;;;;5.08;3.33;;;6.40;99.90;;;;;;1870841;76;21155;-74
2021/03/19 11:03:05;;;;;;;4.25;2.70;;;6.40;99.90;;;;;;1860564;76;21214;-74
2021/03/19 11:05:32;;;;;;;8.35;3.22;;;6.40;99.90;;;;;;1863729;75;21155;-73
2021/03/19 11:07:59;;;;;;;4.17;2.80;;;5.90;99.90;;;;;;1854111;75;21520;-74
2021/03/19 11:10:25;;;;;;;3.75;3.20;;;5.60;99.90;;;;;;1875583;75;21558;-75
2021/03/19 11:12:51;;;;;;;5.00;2.92;;;4.90;99.90;;;;;;1853012;75;21093;-74
2021/03/19 11:15:17;;;;;;;3.12;2.80;;;4.70;99.90;;;;;;1853434;76;21065;-74
2021/03/19 11:17:44;;;;;;;5.35;3.65;;;4.70;99.90;;;;;;1859196;75;21096;-74
2021/03/19 11:20:10;;;;;;;4.78;3.50;;;4.50;99.90;;;;;;1847746;75;21582;-74
2021/03/19 11:22:36;;;;;;;4.70;3.45;;;4.50;99.90;;;;;;1852078;75;21209;-73
2021/03/19 11:25:02;;;;;;;5.58;3.60;;;4.30;99.90;;;;;;1880509;75;21087;-73
2021/03/19 11:27:29;;;;;;;3.45;3.15;;;4.30;99.90;;;;;;1875590;75;21084;-72
2021/03/19 11:29:55;;;;;;;4.47;3.60;;;4.60;99.90;;;;;;1851931;75;21134;-74
2021/03/19 11:32:21;;;;;;;4.37;3.10;;;4.80;99.90;;;;;;1879636;76;21158;-73
2021/03/19 11:34:47;;;;;;;3.87;2.87;;;5.10;99.90;;;;;;1879765;76;21099;-75
2021/03/19 11:37:13;;;;;;;3.90;3.00;;;5.30;99.90;;;;;;1879631;76;21147;-74
2021/03/19 11:39:42;;;;;;;5.42;3.20;;;4.60;99.90;;;;;;1873014;76;21069;-74
2021/03/19 11:42:08;;;;;;;2.85;2.60;;;4.40;99.90;;;;;;1847739;76;21221;-74
2021/03/19 11:44:34;;;;;;;21.05;10.35;;;4.50;99.90;;;;;;1854210;76;21044;-74
2021/03/19 11:47:00;;;;;;;3.72;2.67;;;4.60;99.90;;;;;;1858453;75;21190;-74
2021/03/19 11:49:26;;;;;;;4.92;2.40;;;4.80;99.90;;;;;;1847672;75;21092;-74
2021/03/19 11:51:53;;;;;;;2.52;2.30;;;4.80;99.90;;;;;;1847875;78;21158;-74
2021/03/19 11:54:19;;;;;;;3.22;2.02;;;4.70;99.90;;;;;;1877547;76;21080;-74
2021/03/19 11:56:45;;;;;;;3.27;2.47;;;4.80;99.90;;;;;;1852935;76;21057;-74
2021/03/19 11:59:14;;;;;;;3.15;2.42;;;4.70;99.90;;;;;;1866006;76;21553;-74
2021/03/19 12:01:39;;;;;;;2.77;2.47;;;4.70;99.90;;;;;;1879429;76;21108;-74
2021/03/19 12:04:05;;;;;;;2.62;2.42;;;4.90;99.90;;;;;;1879611;75;21170;-74
2021/03/19 12:06:32;;;;;;;3.98;2.42;;;5.00;99.90;;;;;;1858340;76;21248;-74
2021/03/19 12:08:59;;;;;;;3.67;2.42;;;5.30;99.90;;;;;;1848275;76;21147;-74
2021/03/19 12:11:25;;;;;;;5.35;3.20;;;5.10;99.90;;;;;;1861817;76;21536;-74
2021/03/19 12:13:52;;;;;;;8.93;2.45;;;5.00;99.90;;;;;;1855008;75;21556;-74
2021/03/19 12:16:18;;;;;;;3.05;2.40;;;5.20;99.90;;;;;;1864652;75;21087;-74
2021/03/19 12:18:44;;;;;;;6.42;3.10;;;5.40;99.90;;;;;;1879551;76;21087;-73
2021/03/19 12:21:11;;;;;;;3.72;2.67;;;5.20;99.90;;;;;;1856404;75;21193;-73
2021/03/19 12:23:38;;;;;;;5.15;3.17;;;5.10;99.90;;;;;;1857804;75;21096;-75
2021/03/19 12:26:04;;;;;;;5.72;3.30;;;5.00;99.90;;;;;;1860136;76;21085;-74
2021/03/19 12:28:30;;;;;;;4.50;3.50;;;5.10;99.90;;;;;;1858250;75;21453;-73
2021/03/19 12:30:56;;;;;;;5.22;3.90;;;5.10;99.90;;;;;;1876906;75;21064;-74
2021/03/19 12:33:23;;;;;;;7.17;3.83;;;5.20;99.90;;;;;;1870752;75;21091;-74
2021/03/19 12:35:49;;;;;;;6.65;4.10;;;5.30;99.90;;;;;;1863060;75;21175;-74
2021/03/19 12:38:16;;;;;;;5.80;3.90;;;5.20;99.90;;;;;;1860637;76;21174;-73
2021/03/19 12:40:42;;;;;;;6.15;4.15;;;4.90;99.90;;;;;;1879682;76;21096;-74
2021/03/19 12:43:08;;;;;;;6.53;4.45;;;4.50;99.90;;;;;;1879564;76;21157;-73
2021/03/19 12:45:34;;;;;;;5.62;3.90;;;4.50;99.90;;;;;;1861676;75;21105;-74